Raymond, Ohio
Current Conditions -  °F | °C
As of 5:13 PM on Saturday 20 Dec 2014 (Local Time) from KMRT Reporting Station
Overcast Overcast  
Wind Chill: -1°   Ceiling: 1900
Heat Index: -1°   Visibility: 5mi
Dew Point: -5°   Wind: 0mph
Humidity: 76%   Direction: NA
Pressure: 30.26"   Gusts: NA
Location:  40.33°N, 83.47°W
Report Text: KMRT 202213Z AUTO 00000KT 5SM OVC019 M01/M05 A3026 RMK AO2 T10131050
Loading
Personal Weather Stations






























Interactive Weather Map New forecast layout! Learn more

10-Day Weather Forecast

Advertisements
Track Severe Weather on mobile